Time;durP1;ratioP1;P1;durP2;ratioP2;P2;SDS_P1;SDS_P2;PMS_P1;PMS_P2;Temp;Humidity;BMP_temperature;BMP_pressure;BME280_temperature;BME280_humidity;BME280_pressure;Samples;Min_cycle;Max_cycle;Signal;HPM_P1;HPM_P2
2023/05/22 00:00:35;;;;;;;;;17.00;14.25;;;;;19.99;42.87;101121.63;5020874;28;45340;-66
2023/05/22 00:03:02;;;;;;;;;14.50;11.75;;;;;19.94;42.86;101105.84;5020447;28;45316;-66
2023/05/22 00:05:29;;;;;;;;;21.00;12.25;;;;;19.90;42.93;101106.06;5020286;28;46312;-66
2023/05/22 00:07:54;;;;;;;;;17.75;13.50;;;;;19.87;43.27;101112.41;5020437;28;45230;-66
2023/05/22 00:10:19;;;;;;;;;18.00;15.00;;;;;19.87;42.90;101114.22;5019343;28;45256;-66
2023/05/22 00:12:45;;;;;;;;;15.00;14.75;;;;;19.83;43.39;101110.81;5020311;28;45262;-66
2023/05/22 00:15:10;;;;;;;;;15.25;13.50;;;;;19.82;42.81;101109.06;5020029;28;45234;-66
2023/05/22 00:17:36;;;;;;;;;11.25;8.50;;;;;19.78;42.98;101112.81;5020423;28;45269;-66
2023/05/22 00:20:05;;;;;;;;;14.50;13.00;;;;;19.73;43.34;101104.16;5020708;28;45323;-66
2023/05/22 00:22:34;;;;;;;;;14.25;12.75;;;;;19.73;43.43;101112.16;5002891;28;45335;-66
2023/05/22 00:24:59;;;;;;;;;15.50;13.25;;;;;19.70;42.95;101104.31;5019960;28;46255;-66
2023/05/22 00:27:25;;;;;;;;;11.25;11.00;;;;;19.67;43.10;101099.97;5018874;28;45282;-66
2023/05/22 00:29:50;;;;;;;;;12.75;12.50;;;;;19.60;43.13;101087.91;5018831;28;45449;-66
2023/05/22 00:32:15;;;;;;;;;18.50;16.00;;;;;19.62;43.00;101107.31;5020342;28;45328;-66
2023/05/22 00:34:41;;;;;;;;;15.75;12.75;;;;;19.60;42.96;101103.88;5019989;28;45217;-66
2023/05/22 00:37:06;;;;;;;;;16.50;14.25;;;;;19.60;43.20;101109.22;5020265;28;45302;-67
2023/05/22 00:39:31;;;;;;;;;14.75;14.75;;;;;19.58;42.97;101108.41;5020319;28;45404;-66
2023/05/22 00:41:57;;;;;;;;;17.00;14.50;;;;;19.54;42.92;101110.34;5020076;28;45304;-66
2023/05/22 00:44:22;;;;;;;;;15.75;15.50;;;;;19.50;43.09;101103.44;5018446;28;46860;-66
2023/05/22 00:46:47;;;;;;;;;19.50;15.25;;;;;19.46;43.30;101108.03;5020149;28;45422;-66
2023/05/22 00:49:13;;;;;;;;;14.50;14.50;;;;;19.45;42.98;101110.78;5018890;28;45543;-66
2023/05/22 00:51:38;;;;;;;;;17.75;12.00;;;;;19.42;43.22;101106.47;5021503;28;54735;-66
2023/05/22 00:54:04;;;;;;;;;14.75;13.00;;;;;19.38;43.42;101104.84;5019738;28;45299;-66
2023/05/22 00:56:30;;;;;;;;;16.50;15.00;;;;;19.32;43.08;101094.50;5019855;28;45551;-66
2023/05/22 00:58:55;;;;;;;;;15.50;15.50;;;;;19.32;43.21;101105.16;5018492;28;45293;-67
2023/05/22 01:01:22;;;;;;;;;17.25;16.75;;;;;19.27;43.15;101093.81;5020016;28;45312;-66
2023/05/22 01:03:49;;;;;;;;;14.50;13.25;;;;;19.26;43.38;101092.97;5019725;28;46166;-66
2023/05/22 01:06:17;;;;;;;;;18.25;15.00;;;;;19.23;43.29;101090.44;5001884;28;45383;-66
2023/05/22 01:08:42;;;;;;;;;15.75;14.00;;;;;19.19;43.54;101087.97;5018502;28;45338;-66
2023/05/22 01:11:21;;;;;;;;;15.50;14.75;;;;;19.19;43.61;101082.66;5019380;28;45554;-66
2023/05/22 01:14:07;;;;;;;;;16.00;13.75;;;;;19.14;43.66;101074.84;5019234;28;45984;-66
2023/05/22 01:16:49;;;;;;;;;17.00;15.50;;;;;19.14;43.40;101080.19;5019931;28;45182;-66
2023/05/22 01:19:46;;;;;;;;;15.25;13.50;;;;;19.09;42.99;101083.03;5021895;28;45341;-66
2023/05/22 01:22:29;;;;;;;;;19.00;14.25;;;;;19.08;43.23;101092.00;5023213;28;45674;-66
2023/05/22 01:25:10;;;;;;;;;20.00;15.25;;;;;19.04;43.16;101081.53;5021664;28;47165;-66
2023/05/22 01:27:45;;;;;;;;;14.50;13.00;;;;;19.03;43.69;101094.00;5021653;28;45377;-66
2023/05/22 01:30:45;;;;;;;;;12.75;12.75;;;;;19.00;43.27;101086.13;5021765;28;45514;-66
2023/05/22 01:33:15;;;;;;;;;16.00;11.75;;;;;18.95;43.50;101090.78;5014770;28;45729;-66
2023/05/22 01:35:44;;;;;;;;;13.50;11.75;;;;;18.94;43.62;101092.59;5022648;28;45276;-66
2023/05/22 01:38:10;;;;;;;;;13.75;13.50;;;;;18.93;43.34;101097.97;5022945;28;45511;-66
2023/05/22 01:40:36;;;;;;;;;14.00;12.75;;;;;18.90;43.33;101092.75;5022723;28;45372;-66
2023/05/22 01:43:01;;;;;;;;;17.50;15.50;;;;;18.88;43.77;101089.28;5022716;28;45325;-66
2023/05/22 01:45:27;;;;;;;;;12.50;11.00;;;;;18.84;43.48;101092.09;5022551;28;46492;-66
2023/05/22 01:47:52;;;;;;;;;17.50;16.50;;;;;18.82;43.42;101091.28;5022875;28;45256;-66
2023/05/22 01:50:18;;;;;;;;;15.75;14.75;;;;;18.79;43.41;101093.22;5022998;28;45231;-66
2023/05/22 01:52:57;;;;;;;;;15.25;12.75;;;;;18.76;43.44;101085.38;5024241;28;45366;-66
2023/05/22 01:55:55;;;;;;;;;12.75;12.75;;;;;18.72;43.73;101091.78;5022196;28;46450;-66
2023/05/22 01:58:37;;;;;;;;;14.00;12.75;;;;;18.71;43.80;101088.22;5022212;28;45353;-67
2023/05/22 02:01:03;;;;;;;;;15.00;13.50;;;;;18.70;43.62;101096.28;5022707;28;45431;-66
2023/05/22 02:03:34;;;;;;;;;14.50;11.50;;;;;18.66;43.37;101098.22;5022229;28;45440;-66
2023/05/22 02:06:04;;;;;;;;;16.75;13.75;;;;;18.63;43.55;101095.69;5022455;28;46243;-66
2023/05/22 02:08:30;;;;;;;;;20.25;14.25;;;;;18.61;43.69;101087.75;5022522;28;45375;-66
2023/05/22 02:10:58;;;;;;;;;13.75;13.25;;;;;18.57;43.69;101083.50;5021019;28;45391;-66
2023/05/22 02:13:24;;;;;;;;;17.00;14.50;;;;;18.55;43.46;101096.00;5022074;28;45434;-66
2023/05/22 02:15:50;;;;;;;;;12.75;12.75;;;;;18.54;43.42;101085.41;5020947;28;46024;-66
2023/05/22 02:18:16;;;;;;;;;14.75;14.75;;;;;18.53;43.99;101100.53;5022291;28;45391;-66
2023/05/22 02:20:41;;;;;;;;;12.00;10.00;;;;;18.49;43.50;101091.81;5022417;28;45205;-66
2023/05/22 02:23:07;;;;;;;;;24.00;16.00;;;;;18.47;43.70;101095.47;5021156;28;45244;-66
2023/05/22 02:25:32;;;;;;;;;12.75;12.75;;;;;18.45;43.97;101099.97;5022065;28;46196;-66
2023/05/22 02:27:57;;;;;;;;;18.00;14.25;;;;;18.47;44.06;101096.31;5021972;28;45472;-67
2023/05/22 02:30:23;;;;;;;;;14.50;11.00;;;;;18.47;44.04;101101.63;5021027;28;45397;-66
2023/05/22 02:32:48;;;;;;;;;15.00;12.75;;;;;18.43;43.93;101089.41;5022170;28;45582;-66
2023/05/22 02:35:14;;;;;;;;;11.50;11.50;;;;;18.44;44.00;101090.25;5021898;28;45531;-66
2023/05/22 02:37:41;;;;;;;;;18.00;15.75;;;;;18.43;43.77;101094.72;5022087;28;45344;-66
2023/05/22 02:40:07;;;;;;;;;15.50;13.75;;;;;18.41;43.77;101093.91;5022206;28;45233;-66
2023/05/22 02:42:32;;;;;;;;;17.50;15.25;;;;;18.41;43.84;101087.72;5021761;28;45597;-66
2023/05/22 02:44:58;;;;;;;;;21.00;18.75;;;;;18.37;44.08;101089.66;5020200;28;47286;-66
2023/05/22 02:47:23;;;;;;;;;31.50;26.00;;;;;18.32;43.71;101086.31;5021987;28;45317;-66
2023/05/22 02:49:48;;;;;;;;;19.25;19.00;;;;;18.33;44.07;101088.06;5021939;28;45347;-66
2023/05/22 02:52:14;;;;;;;;;30.75;26.50;;;;;18.29;44.15;101081.13;5024339;28;45558;-66
2023/05/22 02:54:39;;;;;;;;;31.50;28.50;;;;;18.27;44.06;101081.19;5020112;28;48148;-67
2023/05/22 02:57:04;;;;;;;;;32.25;27.00;;;;;18.26;44.12;101082.09;5020405;28;45299;-66
2023/05/22 02:59:30;;;;;;;;;31.75;29.75;;;;;18.25;43.70;101082.16;5020283;28;45427;-66
2023/05/22 03:01:56;;;;;;;;;34.00;31.50;;;;;18.24;44.44;101086.63;5021831;28;45563;-67
2023/05/22 03:04:21;;;;;;;;;41.25;31.75;;;;;18.19;44.18;101081.50;5020198;28;47330;-66
2023/05/22 03:06:47;;;;;;;;;33.50;30.00;;;;;18.22;43.92;101084.97;5020471;28;46001;-67
2023/05/22 03:09:12;;;;;;;;;33.50;29.50;;;;;18.21;44.13;101086.75;5021768;28;45352;-66
2023/05/22 03:11:37;;;;;;;;;34.75;27.50;;;;;18.16;44.34;101083.41;5021439;28;45569;-66
2023/05/22 03:14:03;;;;;;;;;24.50;24.50;;;;;18.14;43.97;101080.81;5021041;28;46132;-66
2023/05/22 03:16:28;;;;;;;;;26.25;23.50;;;;;18.16;44.42;101094.03;5020146;28;45377;-67
2023/05/22 03:19:15;;;;;;;;;23.75;23.25;;;;;18.15;44.34;101093.19;5021691;28;45308;-67
2023/05/22 03:21:43;;;;;;;;;24.25;22.50;;;;;18.15;44.28;101089.66;5019893;28;45501;-67
2023/05/22 03:24:08;;;;;;;;;23.00;19.50;;;;;18.14;43.98;101082.63;5021070;28;45380;-67
2023/05/22 03:26:34;;;;;;;;;17.50;15.00;;;;;18.14;44.23;101083.47;5021130;28;45182;-67
2023/05/22 03:28:59;;;;;;;;;17.50;15.00;;;;;18.14;44.11;101085.28;5019876;28;45267;-68
2023/05/22 03:31:28;;;;;;;;;20.50;18.25;;;;;18.13;44.57;101078.22;5020000;28;45311;-67
2023/05/22 03:33:53;;;;;;;;;18.25;16.00;;;;;18.11;44.37;101072.97;5021030;28;46311;-67
2023/05/22 03:36:20;;;;;;;;;17.00;15.25;;;;;18.08;44.42;101069.56;5020971;28;45244;-67
2023/05/22 03:38:45;;;;;;;;;16.00;15.25;;;;;18.08;44.36;101073.09;5019804;28;45455;-67
2023/05/22 03:41:11;;;;;;;;;13.50;13.50;;;;;18.04;44.28;101060.84;5018946;28;45266;-68
2023/05/22 03:43:36;;;;;;;;;17.25;16.25;;;;;18.07;44.57;101071.34;5019363;28;47925;-67
2023/05/22 03:46:01;;;;;;;;;14.75;14.25;;;;;18.03;44.43;101070.59;5021068;28;45320;-67
2023/05/22 03:48:26;;;;;;;;;13.50;12.75;;;;;18.05;44.67;101083.88;5021086;28;45328;-67
2023/05/22 03:50:52;;;;;;;;;15.25;14.00;;;;;18.05;44.43;101088.28;5020811;28;45324;-67
2023/05/22 03:53:17;;;;;;;;;15.50;13.25;;;;;18.03;44.15;101083.03;5023090;28;46248;-67
2023/05/22 03:55:42;;;;;;;;;16.50;14.50;;;;;18.04;44.24;101082.13;5020676;28;45254;-67
2023/05/22 03:58:08;;;;;;;;;14.25;12.50;;;;;17.99;44.45;101070.81;5019267;28;45578;-67
2023/05/22 04:00:33;;;;;;;;;16.50;15.75;;;;;17.99;44.40;101084.94;5020896;28;45207;-67
2023/05/22 04:02:59;;;;;;;;;15.25;14.25;;;;;17.98;44.51;101083.22;5019184;28;45648;-67
2023/05/22 04:05:25;;;;;;;;;16.25;14.00;;;;;17.97;44.37;101092.13;5020676;28;45249;-67
2023/05/22 04:07:50;;;;;;;;;17.00;15.75;;;;;17.93;44.45;101095.78;5020713;28;45178;-67
2023/05/22 04:10:15;;;;;;;;;14.00;13.00;;;;;17.96;44.39;101101.03;5020379;28;49047;-67
2023/05/22 04:12:41;;;;;;;;;16.75;14.00;;;;;17.90;44.62;101097.72;5020235;28;45391;-67
2023/05/22 04:15:07;;;;;;;;;14.75;13.25;;;;;17.93;44.50;101110.91;5020276;28;45365;-67
2023/05/22 04:17:34;;;;;;;;;20.00;17.00;;;;;17.91;44.63;101113.63;5020729;28;45429;-67
2023/05/22 04:19:59;;;;;;;;;13.00;12.00;;;;;17.89;44.23;101109.28;5020500;28;45455;-67
2023/05/22 04:22:29;;;;;;;;;14.50;12.50;;;;;17.89;44.72;101114.59;5018806;28;45413;-67
2023/05/22 04:24:55;;;;;;;;;14.50;12.50;;;;;17.85;44.60;101109.41;5020371;28;45229;-67
2023/05/22 04:27:21;;;;;;;;;15.75;14.25;;;;;17.87;44.57;101117.31;5020386;28;45209;-67
2023/05/22 04:29:47;;;;;;;;;16.00;14.00;;;;;17.83;44.58;101110.38;5020114;28;45532;-67
2023/05/22 04:32:17;;;;;;;;;15.00;13.00;;;;;17.84;44.87;101115.63;5018675;28;45544;-67
2023/05/22 04:34:43;;;;;;;;;15.50;15.00;;;;;17.86;44.60;101121.75;5020296;28;45377;-67
2023/05/22 04:37:09;;;;;;;;;15.00;13.75;;;;;17.76;44.54;101109.75;5018955;28;45229;-67
2023/05/22 04:39:34;;;;;;;;;14.50;11.00;;;;;17.83;44.93;101121.88;5020154;28;45217;-67
2023/05/22 04:42:04;;;;;;;;;38.25;31.00;;;;;17.79;44.67;101114.09;5019935;28;45246;-67
2023/05/22 04:44:33;;;;;;;;;19.50;18.50;;;;;17.84;44.60;101123.59;5018738;28;45481;-67
2023/05/22 04:46:59;;;;;;;;;24.50;19.50;;;;;17.87;44.83;101122.63;5018823;28;45211;-67
2023/05/22 04:49:25;;;;;;;;;16.00;15.50;;;;;17.86;44.59;101127.09;5020038;28;45300;-67
2023/05/22 04:51:52;;;;;;;;;16.50;13.50;;;;;17.86;44.78;101127.09;5021226;28;45370;-67
2023/05/22 04:54:18;;;;;;;;;17.25;15.00;;;;;17.84;44.73;101128.91;5019813;28;45436;-67
2023/05/22 04:56:43;;;;;;;;;17.75;16.50;;;;;17.84;44.73;101128.91;5019896;28;45347;-67
2023/05/22 04:59:09;;;;;;;;;15.75;14.25;;;;;17.85;44.81;101124.50;5018302;28;47475;-67
2023/05/22 05:01:34;;;;;;;;;17.50;15.50;;;;;17.84;44.73;101128.91;5018016;28;47030;-67
2023/05/22 05:04:01;;;;;;;;;13.25;12.50;;;;;17.84;44.87;101123.59;5018110;28;45402;-67
2023/05/22 05:06:27;;;;;;;;;18.50;14.00;;;;;17.84;45.05;101123.59;5018741;28;45393;-67
2023/05/22 05:08:52;;;;;;;;;14.75;14.50;;;;;17.82;44.89;101120.16;5019696;28;45755;-67
2023/05/22 05:11:18;;;;;;;;;16.50;14.00;;;;;17.84;44.89;101110.31;5019489;28;45213;-65
2023/05/22 05:13:43;;;;;;;;;12.75;12.25;;;;;17.89;44.96;101119.94;5019162;28;51390;-66
2023/05/22 05:16:08;;;;;;;;;16.00;14.75;;;;;17.83;45.27;101108.56;5019646;28;45201;-66
2023/05/22 05:18:34;;;;;;;;;19.50;16.75;;;;;17.89;44.94;101114.59;5019756;28;45214;-66
2023/05/22 05:20:59;;;;;;;;;13.25;12.75;;;;;17.87;45.29;101115.53;5018259;28;48009;-67
2023/05/22 05:23:25;;;;;;;;;16.50;14.75;;;;;17.88;44.60;101116.38;5019537;28;49355;-66
2023/05/22 05:25:50;;;;;;;;;16.25;15.25;;;;;17.91;45.00;101123.38;5019576;28;45489;-67
2023/05/22 05:28:15;;;;;;;;;16.75;14.25;;;;;17.90;44.94;101134.94;5019469;28;45293;-67
2023/05/22 05:30:41;;;;;;;;;18.00;16.00;;;;;17.91;45.19;101131.34;5019124;28;53017;-67
2023/05/22 05:33:06;;;;;;;;;16.50;13.75;;;;;17.91;45.17;101124.25;5019506;28;45880;-66
2023/05/22 05:35:31;;;;;;;;;19.00;16.75;;;;;17.91;45.50;101124.25;5019549;28;45490;-66
2023/05/22 05:37:57;;;;;;;;;17.50;15.75;;;;;17.93;45.16;101116.22;5018175;28;45781;-66
2023/05/22 05:40:23;;;;;;;;;24.00;21.50;;;;;17.93;45.19;101121.53;5017749;28;46581;-67
2023/05/22 05:42:48;;;;;;;;;17.25;15.25;;;;;17.89;45.25;101117.25;5019153;28;45324;-66
2023/05/22 05:45:14;;;;;;;;;22.25;17.00;;;;;17.93;45.20;101124.19;5019408;28;45363;-66
2023/05/22 05:47:39;;;;;;;;;22.50;18.75;;;;;17.95;45.16;101117.03;5019367;28;45379;-67
2023/05/22 05:50:05;;;;;;;;;24.50;17.25;;;;;17.96;45.31;101121.44;5017785;28;47010;-67
2023/05/22 05:52:31;;;;;;;;;22.25;19.25;;;;;17.93;45.22;101111.75;5021575;28;45430;-66
2023/05/22 05:54:57;;;;;;;;;16.50;16.25;;;;;17.96;45.25;101117.00;5019097;28;45437;-67
2023/05/22 05:57:22;;;;;;;;;19.25;18.75;;;;;17.94;45.23;101113.53;5017840;28;45473;-68
2023/05/22 05:59:48;;;;;;;;;20.50;16.75;;;;;17.94;45.39;101118.84;5018654;28;45361;-67
2023/05/22 06:02:13;;;;;;;;;13.50;13.50;;;;;17.96;45.22;101121.44;5019243;28;45296;-67
2023/05/22 06:04:38;;;;;;;;;15.75;15.50;;;;;17.95;45.22;101123.22;5022505;28;45232;-67
2023/05/22 06:07:04;;;;;;;;;22.25;16.75;;;;;17.96;45.32;101119.66;5022493;28;45246;-68
2023/05/22 06:09:30;;;;;;;;;19.25;16.75;;;;;17.99;45.04;101119.53;5021219;28;45279;-67
2023/05/22 06:11:55;;;;;;;;;18.50;16.00;;;;;17.99;45.48;101118.66;5022005;28;54353;-66
2023/05/22 06:14:21;;;;;;;;;14.50;13.75;;;;;18.01;45.26;101117.69;5020686;28;45424;-66
2023/05/22 06:16:46;;;;;;;;;14.50;12.25;;;;;18.03;45.31;101122.94;5022433;28;45519;-66
2023/05/22 06:19:13;;;;;;;;;6.25;5.50;;;;;17.97;45.48;101101.91;5020988;28;48531;-66
2023/05/22 06:21:38;;;;;;;;;26.75;23.75;;;;;18.06;45.30;101127.25;5020935;28;45314;-67
2023/05/22 06:24:04;;;;;;;;;21.75;16.75;;;;;18.05;45.32;101120.19;5022311;28;45516;-66
2023/05/22 06:26:30;;;;;;;;;18.75;14.75;;;;;18.08;45.72;101130.72;5022197;28;45503;-67
2023/05/22 06:28:56;;;;;;;;;20.25;18.50;;;;;18.08;45.41;101120.94;5020523;28;46754;-67
2023/05/22 06:31:21;;;;;;;;;32.50;23.25;;;;;18.13;45.74;101129.59;5022226;28;45276;-67
2023/05/22 06:33:50;;;;;;;;;22.00;18.00;;;;;18.14;45.75;101131.34;5022216;28;45230;-67
2023/05/22 06:36:16;;;;;;;;;19.50;18.25;;;;;18.15;45.46;101121.56;5021976;28;45213;-67
2023/05/22 06:38:42;;;;;;;;;12.00;8.50;;;;;18.19;45.23;101133.84;5022024;28;45290;-67
2023/05/22 06:41:07;;;;;;;;;18.00;16.50;;;;;18.22;45.39;101136.34;5022069;28;45329;-66
2023/05/22 06:43:32;;;;;;;;;19.25;18.50;;;;;18.24;45.32;101138.94;5021864;28;45423;-66
2023/05/22 06:45:58;;;;;;;;;18.25;16.00;;;;;18.27;45.71;101146.81;5020763;28;45924;-66
2023/05/22 06:48:23;;;;;;;;;19.50;18.50;;;;;18.29;45.87;101147.63;5020586;28;45388;-66
2023/05/22 06:50:48;;;;;;;;;20.50;18.50;;;;;18.30;45.53;101147.56;5020613;28;47259;-66
2023/05/22 06:53:14;;;;;;;;;22.75;17.75;;;;;18.35;45.73;101153.56;5024258;28;45300;-66
2023/05/22 06:55:39;;;;;;;;;20.75;16.00;;;;;18.37;45.85;101155.31;5021611;28;45352;-66
2023/05/22 06:58:04;;;;;;;;;18.00;14.75;;;;;18.38;45.68;101160.56;5021597;28;45286;-66
2023/05/22 07:00:30;;;;;;;;;17.75;15.00;;;;;18.39;45.80;101151.66;5021658;28;45372;-67
2023/05/22 07:02:55;;;;;;;;;17.25;17.25;;;;;18.41;45.61;101147.13;5021863;28;45253;-67
2023/05/22 07:05:20;;;;;;;;;15.50;15.00;;;;;18.47;46.01;101154.00;5020309;28;45428;-67
2023/05/22 07:07:46;;;;;;;;;21.00;18.25;;;;;18.44;45.66;101138.13;5021482;28;46451;-67
2023/05/22 07:10:11;;;;;;;;;20.50;17.25;;;;;18.52;45.92;101144.03;5021266;28;47027;-67
2023/05/22 07:12:36;;;;;;;;;18.50;16.50;;;;;18.56;46.30;101152.75;5021286;28;45309;-67
2023/05/22 07:15:02;;;;;;;;;19.50;18.25;;;;;18.57;46.18;101157.16;5020368;28;45377;-67
2023/05/22 07:17:28;;;;;;;;;19.50;17.25;;;;;18.61;46.13;101150.78;5003488;28;46794;-67
2023/05/22 07:19:53;;;;;;;;;18.00;16.00;;;;;18.62;46.25;101152.50;5021517;28;45229;-67
2023/05/22 07:22:18;;;;;;;;;14.75;13.75;;;;;18.67;46.01;101159.34;5021423;28;45271;-67
2023/05/22 07:24:46;;;;;;;;;21.00;18.00;;;;;18.68;46.05;101153.09;5021197;28;45287;-67
2023/05/22 07:27:11;;;;;;;;;21.00;17.75;;;;;18.77;45.72;101161.66;5019832;28;47363;-67
2023/05/22 07:29:37;;;;;;;;;23.25;19.00;;;;;18.79;46.21;101162.44;5020983;28;45253;-67
2023/05/22 07:32:02;;;;;;;;;20.00;19.50;;;;;18.83;45.99;101151.59;5021233;28;45317;-67
2023/05/22 07:34:31;;;;;;;;;23.00;20.75;;;;;18.90;46.28;101168.19;5019796;28;45416;-67
2023/05/22 07:36:57;;;;;;;;;16.00;16.00;;;;;18.93;46.03;101164.53;5021147;28;46309;-67
2023/05/22 07:39:23;;;;;;;;;15.75;15.75;;;;;18.96;46.21;101156.44;5021098;28;45289;-67
2023/05/22 07:41:52;;;;;;;;;20.75;19.25;;;;;19.06;46.20;101176.41;5021068;28;45305;-67
2023/05/22 07:44:18;;;;;;;;;22.00;18.25;;;;;19.11;46.10;101177.06;5019328;28;45586;-67
2023/05/22 07:46:43;;;;;;;;;22.50;19.50;;;;;19.17;46.02;101174.16;5020889;28;47790;-67
2023/05/22 07:49:09;;;;;;;;;21.25;20.25;;;;;19.21;46.03;101166.03;5021181;28;45358;-67
2023/05/22 07:51:34;;;;;;;;;20.75;17.75;;;;;19.29;46.18;101175.41;5024062;28;45433;-67
2023/05/22 07:53:59;;;;;;;;;19.25;16.50;;;;;19.34;46.36;101172.53;5020878;28;45464;-67
2023/05/22 07:56:26;;;;;;;;;18.75;15.75;;;;;19.43;45.98;101180.16;5019092;28;46619;-67
2023/05/22 07:58:51;;;;;;;;;17.25;15.00;;;;;19.48;45.70;101183.47;5020819;28;45335;-67
2023/05/22 08:01:17;;;;;;;;;23.00;20.00;;;;;19.54;46.32;101182.31;5020660;28;45514;-67
2023/05/22 08:03:42;;;;;;;;;19.50;16.00;;;;;19.61;46.23;101180.25;5019384;28;45447;-67
2023/05/22 08:06:08;;;;;;;;;17.50;17.00;;;;;19.69;46.11;101182.56;5019132;28;48264;-67
2023/05/22 08:08:33;;;;;;;;;21.50;16.75;;;;;19.75;46.20;101180.47;5020874;28;45209;-67
2023/05/22 08:10:59;;;;;;;;;16.50;15.75;;;;;19.85;46.04;101178.28;5019316;28;45334;-67
2023/05/22 08:13:24;;;;;;;;;22.00;21.00;;;;;19.93;46.31;101181.47;5020228;28;45269;-67
2023/05/22 08:15:51;;;;;;;;;18.25;16.50;;;;;20.02;46.40;101187.31;5020309;28;45369;-67
2023/05/22 08:18:16;;;;;;;;;19.25;18.25;;;;;20.08;46.34;101179.88;5019154;28;45371;-67
2023/05/22 08:20:41;;;;;;;;;19.25;18.50;;;;;20.18;46.05;101184.78;5020467;28;45322;-67
2023/05/22 08:23:07;;;;;;;;;17.75;16.50;;;;;20.24;46.56;101182.69;5019019;28;45274;-67
2023/05/22 08:25:32;;;;;;;;;20.50;16.50;;;;;20.34;46.54;101182.22;5020074;28;46144;-67
2023/05/22 08:27:57;;;;;;;;;21.75;17.25;;;;;20.43;46.41;101188.00;5019925;28;48259;-67
2023/05/22 08:30:23;;;;;;;;;21.25;18.25;;;;;20.50;46.28;101185.88;5002630;28;45436;-67
2023/05/22 08:32:48;;;;;;;;;26.25;22.25;;;;;20.61;46.38;101193.38;5020041;28;45372;-67
2023/05/22 08:35:13;;;;;;;;;20.25;17.50;;;;;20.68;46.40;101186.81;5019827;28;51902;-67
2023/05/22 08:37:39;;;;;;;;;19.50;18.50;;;;;20.77;46.33;101182.84;5018732;28;45813;-67
2023/05/22 08:40:09;;;;;;;;;24.00;18.75;;;;;20.86;46.49;101184.19;5020255;28;45498;-67
2023/05/22 08:42:34;;;;;;;;;19.25;17.50;;;;;20.93;46.34;101188.28;5020158;28;45227;-67
2023/05/22 08:45:00;;;;;;;;;18.00;18.00;;;;;20.99;46.07;101182.59;5018577;28;47145;-67
2023/05/22 08:47:25;;;;;;;;;18.00;16.00;;;;;21.07;46.39;101185.75;5020234;28;45262;-67
2023/05/22 08:49:53;;;;;;;;;14.75;11.75;;;;;21.13;45.76;101184.59;5020303;28;45207;-67
2023/05/22 08:52:25;;;;;;;;;19.75;18.00;;;;;21.22;45.98;101188.56;5023453;28;45254;-67
2023/05/22 08:54:54;;;;;;;;;19.75;16.50;;;;;21.26;46.15;101185.66;5019039;28;45782;-67
2023/05/22 08:57:20;;;;;;;;;20.25;19.50;;;;;21.36;46.06;101193.22;5019900;28;45397;-67
2023/05/22 08:59:47;;;;;;;;;24.25;20.00;;;;;21.42;45.89;101198.22;5018426;28;45381;-67
2023/05/22 09:02:13;;;;;;;;;17.50;14.75;;;;;21.49;45.80;101201.44;5019930;28;45527;-67
2023/05/22 09:04:42;;;;;;;;;20.50;17.25;;;;;21.56;45.64;101208.25;5018184;28;47861;-67
2023/05/22 09:07:07;;;;;;;;;20.00;17.25;;;;;21.60;45.78;101207.13;5019947;28;45239;-68
2023/05/22 09:09:39;;;;;;;;;20.00;15.50;;;;;21.67;45.83;101200.50;5019720;28;45437;-67
2023/05/22 09:12:08;;;;;;;;;21.25;18.50;;;;;21.73;45.49;101213.53;5019813;28;45298;-67
2023/05/22 09:14:46;;;;;;;;;17.00;17.00;;;;;21.82;46.05;101214.84;5019199;28;46246;-67
2023/05/22 09:17:14;;;;;;;;;19.25;17.50;;;;;21.88;45.49;101214.50;5019718;28;45379;-67
2023/05/22 09:19:46;;;;;;;;;18.00;18.00;;;;;21.95;45.67;101214.16;5019575;28;45439;-67
2023/05/22 09:22:12;;;;;;;;;24.25;20.25;;;;;22.00;45.57;101202.28;5018496;28;45591;-68
2023/05/22 09:24:41;;;;;;;;;19.25;16.00;;;;;22.10;45.48;101207.13;5019403;28;46622;-67
2023/05/22 09:27:06;;;;;;;;;17.25;16.25;;;;;22.16;45.61;101206.78;5018276;28;45463;-68
2023/05/22 09:29:47;;;;;;;;;22.25;21.00;;;;;22.24;45.38;101207.22;5019218;28;45412;-68
2023/05/22 09:32:13;;;;;;;;;23.25;20.25;;;;;22.33;45.55;101205.84;5019412;28;45321;-67
2023/05/22 09:34:39;;;;;;;;;22.50;18.75;;;;;22.37;45.58;101200.25;5019108;28;45978;-68
2023/05/22 09:37:05;;;;;;;;;21.25;17.00;;;;;22.51;45.63;101214.66;5019275;28;45238;-68
2023/05/22 09:39:41;;;;;;;;;18.50;13.75;;;;;22.58;45.46;101208.03;5023056;28;45403;-68
2023/05/22 09:42:11;;;;;;;;;20.00;20.00;;;;;22.64;45.60;101206.78;5022624;28;45574;-68
2023/05/22 09:44:38;;;;;;;;;20.25;20.25;;;;;22.74;45.60;101205.28;5022451;28;45329;-67
2023/05/22 09:47:06;;;;;;;;;21.50;20.25;;;;;22.83;45.72;101198.53;5022714;28;45233;-68
2023/05/22 09:49:36;;;;;;;;;19.75;17.25;;;;;22.90;45.19;101205.28;5022823;28;45356;-68
2023/05/22 09:52:06;;;;;;;;;19.75;18.75;;;;;22.99;45.51;101206.53;5024423;28;45470;-68
2023/05/22 09:54:33;;;;;;;;;23.25;19.75;;;;;23.08;45.37;101199.78;5022355;28;45355;-68
2023/05/22 09:56:59;;;;;;;;;11.25;6.75;;;;;23.14;45.09;101189.53;5022380;28;45462;-68
2023/05/22 09:59:28;;;;;;;;;16.75;15.00;;;;;23.25;45.07;101191.63;5022448;28;45282;-68
2023/05/22 10:01:55;;;;;;;;;19.25;17.25;;;;;23.34;45.40;101190.19;5021150;28;45417;-68
2023/05/22 10:04:21;;;;;;;;;20.50;19.25;;;;;23.43;45.24;101192.31;5021036;28;46161;-68
2023/05/22 10:06:51;;;;;;;;;17.75;17.75;;;;;23.54;45.24;101187.13;5021116;28;45325;-69
2023/05/22 10:09:20;;;;;;;;;22.00;19.00;;;;;23.67;45.19;101187.25;5021030;28;45458;-69
2023/05/22 10:11:47;;;;;;;;;18.75;17.50;;;;;23.82;45.09;101195.28;5022236;28;45436;-69
2023/05/22 10:14:13;;;;;;;;;19.00;18.25;;;;;23.96;44.92;101186.38;5020505;28;46637;-69
2023/05/22 10:16:40;;;;;;;;;18.50;18.25;;;;;24.06;45.06;101170.56;5022158;28;45331;-69
2023/05/22 10:19:07;;;;;;;;;20.50;17.25;;;;;24.35;45.62;101179.41;5022290;28;45262;-69
2023/05/22 10:21:35;;;;;;;;;21.00;19.75;;;;;24.62;45.37;101184.78;5020885;28;45341;-69
2023/05/22 10:24:01;;;;;;;;;19.75;17.25;;;;;24.90;45.58;101176.72;5022028;28;45412;-69
2023/05/22 10:26:28;;;;;;;;;22.50;20.00;;;;;25.22;45.78;101179.91;5020702;28;45312;-69
2023/05/22 10:29:02;;;;;;;;;22.00;21.00;;;;;25.54;46.03;101181.34;5020217;28;45482;-69
2023/05/22 10:31:48;;;;;;;;;21.25;20.75;;;;;25.98;45.52;101176.44;5022132;28;45505;-69
2023/05/22 10:34:37;;;;;;;;;22.00;18.25;;;;;26.36;45.48;101178.16;5021714;28;46341;-70
2023/05/22 10:37:40;;;;;;;;;16.25;16.25;;;;;26.87;45.78;101180.63;5020629;28;45207;-70
2023/05/22 10:40:11;;;;;;;;;19.00;18.75;;;;;27.35;45.30;101186.88;5021866;28;45510;-70
2023/05/22 10:42:37;;;;;;;;;21.75;19.75;;;;;27.77;45.32;101178.22;5021652;28;45159;-70
2023/05/22 10:45:06;;;;;;;;;20.00;17.25;;;;;28.18;45.64;101176.72;5021706;28;45928;-70
2023/05/22 10:47:34;;;;;;;;;19.00;19.00;;;;;28.57;45.24;101165.44;5021804;28;45367;-70
2023/05/22 10:50:06;;;;;;;;;21.50;19.50;;;;;28.99;45.38;101162.78;5002698;28;45288;-70
2023/05/22 10:52:32;;;;;;;;;19.75;19.50;;;;;29.41;45.11;101175.44;5024247;28;45428;-70
2023/05/22 10:54:59;;;;;;;;;25.50;23.75;;;;;29.79;45.25;101169.34;5020896;28;45531;-70
2023/05/22 10:57:26;;;;;;;;;26.00;22.00;;;;;30.19;44.62;101166.75;5020339;28;45399;-70
2023/05/22 11:00:09;;;;;;;;;23.00;19.75;;;;;30.60;44.42;101173.84;5021673;28;45286;-70
2023/05/22 11:02:42;;;;;;;;;21.75;21.50;;;;;31.01;44.05;101167.38;5020193;28;45539;-71
2023/05/22 11:05:20;;;;;;;;;24.00;23.25;;;;;31.43;44.08;101173.31;5021443;28;46621;-70
2023/05/22 11:07:46;;;;;;;;;23.00;22.00;;;;;31.82;44.06;101161.44;5020154;28;45287;-71
2023/05/22 11:10:11;;;;;;;;;22.75;21.25;;;;;32.17;44.15;101158.94;5021658;28;45333;-70